Latest Coastal Weather Observations for Gladstone

IDQ60701

Issued at 5:45 pm EST Thursday 18 September 2014 (issued every 10 minutes, with the page automatically refreshed every 10 minutes)

About coastal observations | Map of coastal stations | Coastal observations for QLD | Marine services | Other Formats
Station Details ID: 039123 Name: GLADSTONE RADAR Lat: -23.86 Lon: 151.26 Height: 74.5 m
Data from the previous 72 hours. | See also: Recent months at Gladstone
Date/Time
EST
Temp

°C
Wind Pressure Rain
since 9am
mm
Weather Cloud Vis
km
Sea
Height
m
Swell
Dir
 
Speed
knots
Gust
knots
hPa Trend Height
m
Period
s
Dir
18/05:30pm 21.2 NE 8 11 1016.9 - 0.0 - - - - - - -
18/05:00pm 21.8 NE 7 11 1016.5 - 0.0 - - - - - - -
18/04:30pm 22.9 NE 7 13 1016.1 - 0.0 - - - - - - -
18/04:00pm 24.0 ENE 9 13 1015.9 - 0.0 - - - - - - -
18/03:30pm 24.7 ENE 10 14 1015.6 - 0.0 - - - - - - -
18/03:00pm 25.3 ENE 13 17 1015.4 - 0.0 - - - - - - -
18/02:30pm 25.6 ENE 12 19 1015.6 - 0.0 - - - - - - -
18/02:00pm 26.5 ENE 12 17 1015.9 - 0.0 - - - - - - -
18/01:30pm 27.0 NE 12 17 1016.3 - 0.0 - - - - - - -
18/01:00pm 27.0 ENE 11 15 1016.8 - 0.0 - - - - - - -
18/12:30pm 28.1 NE 8 15 1017.2 - 0.0 - - - - - - -
18/12:00pm 28.2 NE 10 14 1017.6 - 0.0 - - - - - - -
18/11:30am 27.8 NE 9 12 1018.0 - 0.0 - - - - - - -
18/11:00am 27.8 NE 8 12 1018.6 - 0.0 - - - - - - -
18/10:30am 26.9 NE 9 12 1019.1 - 0.0 - - - - - - -
18/10:00am 26.8 ENE 8 13 1019.4 - 0.0 - - - - - - -
18/09:30am 25.3 ENE 7 11 1019.6 - 0.0 - - - - - - -
18/09:00am 24.7 E 7 11 1019.6 - 0.0 - - - - - - -
18/08:30am 23.3 ESE 8 12 1019.5 - 0.0 - - - - - - -
18/08:00am 22.1 SE 8 13 1019.2 - 0.0 - - - - - - -
18/07:30am 19.9 S 5 9 1019.0 - 0.0 - - - - - - -
18/07:00am 19.1 S 7 10 1018.5 - 0.0 - - - - - - -
18/06:30am 18.7 S 7 10 1018.1 - 0.0 - - - - - - -
18/06:00am 18.4 SSE 7 8 1017.5 - 0.0 - - - - - - -
18/05:30am 17.5 S 8 9 1017.1 - 0.0 - - - - - - -
18/05:00am 17.2 S 8 12 1016.6 - 0.0 - - - - - - -
18/04:30am 17.0 S 7 10 1016.3 - 0.0 - - - - - - -
18/04:00am 16.8 SW 6 9 1015.9 - 0.0 - - - - - - -
18/03:30am 16.7 SW 5 7 1015.7 - 0.0 - - - - - - -
18/03:00am 16.8 SW 5 9 1015.6 - 0.0 - - - - - - -
18/02:30am 17.0 SW 4 5 1015.3 - 0.0 - - - - - - -
18/02:00am 17.4 SW 3 5 1015.4 - 0.0 - - - - - - -
18/01:30am 17.8 SSW 5 7 1015.7 - 0.0 - - - - - - -
18/01:00am 18.2 WSW 3 4 1015.6 - 0.0 - - - - - - -
18/12:30am 18.6 WNW 1 4 1015.6 - 0.0 - - - - - - -
18/12:00am 19.1 NW 4 7 1015.7 - 0.0 - - - - - - -
 
Date/Time
EST
Temp

°C
Wind Pressure Rain
since 9am
mm
Weather Cloud Vis
km
Sea
Height
m
Swell
Dir
 
Speed
knots
Gust
knots
hPa Trend Height
m
Period
s
Dir
17/11:30pm 18.7 WNW 3 5 1015.7 - 0.0 - - - - - - -
17/11:00pm 18.8 WNW 2 5 1015.6 - 0.0 - - - - - - -
17/10:30pm 19.2 CALM 0 3 1015.6 - 0.0 - - - - - - -
17/10:00pm 19.9 WNW 6 9 1015.6 - 0.0 - - - - - - -
17/09:30pm 20.2 NNW 5 6 1015.6 - 0.0 - - - - - - -
17/09:00pm 20.2 NW 5 7 1015.3 - 0.0 - - - - - - -
17/08:30pm 20.1 WNW 3 5 1015.3 - 0.0 - - - - - - -
17/08:00pm 20.7 WNW 5 9 1015.1 - 0.0 - - - - - - -
17/07:30pm 21.0 NNW 6 9 1014.5 - 0.0 - - - - - - -
17/07:00pm 21.1 NNW 6 9 1014.2 - 0.0 - - - - - - -
17/06:30pm 21.2 N 6 9 1014.0 - 0.0 - - - - - - -
17/06:00pm 21.6 N 6 10 1013.5 - 0.0 - - - - - - -
17/05:30pm 22.1 N 7 12 1013.1 - 0.0 - - - - - - -
17/05:00pm 23.1 N 9 14 1012.8 - 0.0 - - - - - - -
17/04:30pm 24.6 N 9 15 1012.3 - 0.0 - - - - - - -
17/04:00pm 26.1 NNE 8 15 1012.2 - 0.0 - - - - - - -
17/03:30pm 26.8 N 7 15 1012.2 - 0.0 - - - - - - -
17/03:00pm 28.0 NNE 7 13 1012.4 - 0.0 - - - - - - -
17/02:30pm 28.0 NNE 8 15 1012.5 - 0.0 - - - - - - -
17/02:00pm 29.6 NE 7 13 1012.9 - 0.0 - - - - - - -
17/01:30pm 30.4 NNE 5 10 1013.5 - 0.0 - - - - - - -
17/01:00pm 30.1 N 6 13 1013.9 - 0.0 - - - - - - -
17/12:30pm 28.3 NW 8 13 1014.5 - 0.0 - - - - - - -
17/12:00pm 30.2 NNE 6 12 1015.0 - 0.0 - - - - - - -
17/11:30am 27.0 NNW 9 15 1015.7 - 0.0 - - - - - - -
17/11:00am 27.2 NNW 7 12 1016.1 - 0.0 - - - - - - -
17/10:30am 26.3 NW 6 10 1016.7 - 0.0 - - - - - - -
17/10:00am 24.7 NNW 6 13 1017.1 - 0.0 - - - - - - -
17/09:30am 22.9 NW 6 11 1017.5 - 0.0 - - - - - - -
17/09:00am 21.7 WNW 6 10 1017.8 - 0.0 - - - - - - -
17/08:30am 21.0 W 5 10 1017.8 - 0.0 - - - - - - -
17/08:00am 19.3 SW 3 7 1017.8 - 0.0 - - - - - - -
17/07:30am 18.3 SW 5 8 1017.4 - 0.0 - - - - - - -
17/07:00am 17.6 SW 4 6 1017.1 - 0.0 - - - - - - -
17/06:30am 16.7 SSW 5 7 1016.7 - 0.0 - - - - - - -
17/06:00am 16.6 SW 3 5 1016.2 - 0.0 - - - - - - -
17/05:30am 16.8 WSW 3 4 1015.7 - 0.0 - - - - - - -
17/05:00am 16.9 WNW 3 4 1015.3 - 0.0 - - - - - - -
17/04:30am 17.2 W 4 5 1015.0 - 0.0 - - - - - - -
17/04:00am 17.3 WNW 4 5 1014.7 - 0.0 - - - - - - -
17/03:30am 17.9 NW 5 7 1014.7 - 0.0 - - - - - - -
17/03:00am 17.8 NW 5 7 1014.8 - 0.0 - - - - - - -
17/02:30am 18.3 NNW 6 8 1014.8 - 0.0 - - - - - - -
17/02:00am 18.1 NW 5 7 1015.0 - 0.0 - - - - - - -
17/01:30am 18.4 NW 6 7 1015.2 - 0.0 - - - - - - -
17/01:00am 18.6 NNW 6 8 1015.4 - 0.0 - - - - - - -
17/12:30am 18.7 NNW 6 9 1015.7 - 0.0 - - - - - - -
17/12:00am 18.8 NNW 7 10 1016.2 - 0.0 - - - - - - -
 
Date/Time
EST
Temp

°C
Wind Pressure Rain
since 9am
mm
Weather Cloud Vis
km
Sea
Height
m
Swell
Dir
 
Speed
knots
Gust
knots
hPa Trend Height
m
Period
s
Dir
16/11:30pm 18.9 NNW 5 9 1016.5 - 0.0 - - - - - - -
16/11:00pm 18.8 NW 5 7 1016.7 - 0.0 - - - - - - -
16/10:30pm 18.8 NW 5 8 1016.6 - 0.0 - - - - - - -
16/10:00pm 18.5 WSW 3 6 1016.7 - 0.0 - - - - - - -
16/09:30pm 19.2 NW 5 7 1016.5 - 0.0 - - - - - - -
16/09:00pm 19.2 NW 4 6 1016.3 - 0.0 - - - - - - -
16/08:30pm 19.1 NW 4 6 1016.0 - 0.0 - - - - - - -
16/08:00pm 19.5 NNW 5 9 1015.4 - 0.0 - - - - - - -
16/07:30pm 19.3 N 5 7 1015.0 - 0.0 - - - - - - -
16/07:00pm 19.5 N 5 9 1014.8 - 0.0 - - - - - - -
16/06:30pm 19.7 N 7 11 1014.4 - 0.0 - - - - - - -
16/06:00pm 20.1 NNE 7 12 1014.2 - 0.0 - - - - - - -
16/05:30pm 20.6 NNE 7 13 1013.9 - 0.0 - - - - - - -
16/05:00pm 21.3 NNE 7 13 1013.9 - 0.0 - - - - - - -
16/04:30pm 21.9 NE 9 14 1013.7 - 0.0 - - - - - - -
16/04:00pm 23.3 NNE 9 12 1013.8 - 0.0 - - - - - - -
16/03:30pm 24.3 NE 8 13 1013.7 - 0.0 - - - - - - -
16/03:00pm 25.2 NE 8 12 1013.8 - 0.0 - - - - - - -
16/02:30pm 25.6 NE 8 13 1014.1 - 0.0 - - - - - - -
16/02:00pm 26.4 NE 8 14 1014.4 - 0.0 - - - - - - -
16/01:30pm 25.9 NE 9 13 1014.7 - 0.0 - - - - - - -
16/01:00pm 26.4 NE 9 14 1015.2 - 0.0 - - - - - - -
16/12:30pm 26.9 NE 9 13 1015.9 - 0.0 - - - - - - -
16/12:00pm 26.5 NE 7 13 1016.4 - 0.0 - - - - - - -
16/11:30am 26.5 NE 7 10 1017.0 - 0.0 - - - - - - -
16/11:00am 26.9 NE 6 9 1017.4 - 0.0 - - - - - - -
16/10:30am 26.8 NNE 4 7 1017.9 - 0.0 - - - - - - -
16/10:00am 23.6 NW 5 9 1018.4 - 0.0 - - - - - - -
16/09:30am 23.1 W 5 9 1018.6 - 0.0 - - - - - - -
16/09:00am 22.8 W 4 7 1018.9 - 0.0 - - - - - - -
16/08:30am 21.4 W 3 6 1018.9 - 0.0 - - - - - - -
16/08:00am 19.5 WSW 3 7 1018.8 - 0.0 - - - - - - -
16/07:30am 18.3 SW 3 6 1018.6 - 0.0 - - - - - - -
16/07:00am 17.5 SW 3 5 1018.2 - 0.0 - - - - - - -
16/06:30am 16.8 SW 4 6 1017.9 - 0.0 - - - - - - -
16/06:00am 16.4 SW 5 7 1017.5 - 0.0 - - - - - - -
16/05:30am 16.3 SW 5 7 1017.3 - 0.0 - - - - - - -
16/05:00am 16.0 SSW 6 8 1017.0 - 0.0 - - - - - - -
16/04:30am 16.2 SSW 6 7 1016.7 - 0.0 - - - - - - -
16/04:00am 16.1 SSW 5 7 1016.5 - 0.0 - - - - - - -
16/03:30am 16.8 SW 3 5 1016.3 - 0.0 - - - - - - -
16/03:00am 17.0 SW 3 4 1016.3 - 0.0 - - - - - - -
16/02:30am 16.9 SW 4 5 1016.2 - 0.0 - - - - - - -
16/02:00am 16.9 SSW 5 6 1016.3 - 0.0 - - - - - - -
16/01:30am 17.1 SW 4 6 1016.5 - 0.0 - - - - - - -
16/01:00am 17.2 SSW 4 5 1016.7 - 0.0 - - - - - - -
16/12:30am 17.6 W 3 5 1016.9 - 0.0 - - - - - - -
16/12:00am 17.7 WNW 3 4 1017.2 - 0.0 - - - - - - -
 
Date/Time
EST
Temp

°C
Wind Pressure Rain
since 9am
mm
Weather Cloud Vis
km
Sea
Height
m
Swell
Dir
 
Speed
knots
Gust
knots
hPa Trend Height
m
Period
s
Dir
15/11:30pm 17.7 WNW 3 4 1017.4 - 0.0 - - - - - - -
15/11:00pm 17.8 NW 2 4 1017.6 - 0.0 - - - - - - -
15/10:30pm 17.8 NNE 4 5 1017.6 - 0.0 - - - - - - -
15/10:00pm 18.0 NE 5 6 1017.6 - 0.0 - - - - - - -
15/09:30pm 17.9 NE 5 7 1017.6 - 0.0 - - - - - - -
15/09:00pm 18.1 ENE 5 7 1017.5 - 0.0 - - - - - - -
15/08:30pm 18.1 NE 6 8 1017.4 - 0.0 - - - - - - -
15/08:00pm 18.2 NE 6 8 1017.3 - 0.0 - - - - - - -
15/07:30pm 18.2 NE 6 8 1017.2 - 0.0 - - - - - - -
15/07:00pm 18.4 NE 5 7 1016.9 - 0.0 - - - - - - -
15/06:30pm 18.8 NE 6 8 1016.7 - 0.0 - - - - - - -
15/06:00pm 19.1 NE 7 9 1016.3 - 0.0 - - - - - - -

Other Formats:

Comma delimited format used in spreadsheet applications
http://www.bom.gov.au/fwo/IDQ60701/IDQ60701.94380.axf

JavaScript Object Notation format (JSON) in row-major order
http://www.bom.gov.au/fwo/IDQ60701/IDQ60701.94380.json